createdAt,value
2023-03-27T00:01:16.288Z,67.28
2023-03-27T00:03:43.426Z,67.21
2023-03-27T00:06:12.039Z,66.52
2023-03-27T00:08:38.826Z,66.66
2023-03-27T00:11:05.887Z,67.32
2023-03-27T00:13:33.623Z,66.80
2023-03-27T00:16:00.273Z,67.20
2023-03-27T00:18:28.275Z,66.48
2023-03-27T00:20:58.725Z,66.83
2023-03-27T00:23:25.700Z,67.53
2023-03-27T00:25:52.700Z,68.44
2023-03-27T00:28:20.329Z,68.78
2023-03-27T00:30:47.896Z,68.60
2023-03-27T00:33:14.708Z,68.62
2023-03-27T00:35:45.949Z,67.98
2023-03-27T00:38:13.236Z,67.90
2023-03-27T00:40:40.120Z,67.56
2023-03-27T00:43:42.767Z,67.94
2023-03-27T00:46:15.773Z,68.30
2023-03-27T00:48:43.225Z,67.91
2023-03-27T00:51:09.919Z,68.35
2023-03-27T00:53:37.280Z,69.39
2023-03-27T00:56:05.017Z,69.53
2023-03-27T00:58:41.284Z,70.43
2023-03-27T01:01:08.048Z,69.74
2023-03-27T01:03:34.881Z,69.76
2023-03-27T01:06:02.408Z,69.93
2023-03-27T01:08:29.929Z,70.19
2023-03-27T01:11:11.998Z,69.73
2023-03-27T01:14:37.169Z,70.09
2023-03-27T01:17:09.493Z,70.35
2023-03-27T01:20:07.321Z,70.56
2023-03-27T01:22:56.043Z,70.61
2023-03-27T01:25:28.614Z,71.29
2023-03-27T01:28:10.691Z,70.94
2023-03-27T01:30:42.043Z,71.08
2023-03-27T01:33:25.993Z,71.35
2023-03-27T01:36:04.869Z,71.61
2023-03-27T01:38:32.068Z,71.58
2023-03-27T01:41:03.403Z,71.46
2023-03-27T01:43:50.862Z,71.59
2023-03-27T01:46:35.752Z,71.18
2023-03-27T01:49:08.587Z,70.97
2023-03-27T01:51:39.901Z,71.00
2023-03-27T01:54:21.963Z,71.26
2023-03-27T01:57:08.347Z,71.32
2023-03-27T01:59:38.022Z,71.41
2023-03-27T02:02:09.464Z,71.16
2023-03-27T02:05:11.564Z,70.37
2023-03-27T02:07:39.949Z,70.00
2023-03-27T02:10:09.148Z,70.27
2023-03-27T02:12:39.226Z,70.66
2023-03-27T02:15:23.994Z,71.14
2023-03-27T02:18:05.782Z,71.68
2023-03-27T02:20:33.427Z,72.45
2023-03-27T02:23:02.840Z,72.51
2023-03-27T02:25:35.503Z,72.28
2023-03-27T02:28:22.875Z,72.72
2023-03-27T02:31:32.929Z,72.73
2023-03-27T02:34:15.200Z,72.97
2023-03-27T02:37:07.729Z,73.22
2023-03-27T02:40:01.344Z,73.43
2023-03-27T02:42:43.160Z,73.45
2023-03-27T02:45:19.353Z,73.46
2023-03-27T02:47:48.101Z,73.77
2023-03-27T02:51:07.487Z,73.87
2023-03-27T02:53:37.985Z,74.06
2023-03-27T02:56:05.011Z,74.02
2023-03-27T02:58:38.044Z,74.03
2023-03-27T03:01:05.039Z,74.21
2023-03-27T03:03:53.727Z,74.29
2023-03-27T03:06:21.241Z,74.19
2023-03-27T03:08:48.609Z,74.36
2023-03-27T03:11:15.892Z,74.44
2023-03-27T03:13:42.610Z,74.27
2023-03-27T03:16:10.239Z,74.43
2023-03-27T03:18:37.052Z,74.59
2023-03-27T03:21:04.859Z,74.80
2023-03-27T03:23:32.043Z,74.69
2023-03-27T03:25:58.809Z,74.82
2023-03-27T03:28:28.534Z,74.96
2023-03-27T03:30:55.713Z,75.49
2023-03-27T03:33:22.745Z,75.60
2023-03-27T03:35:50.295Z,75.18
2023-03-27T03:38:25.894Z,75.50
2023-03-27T03:40:56.619Z,75.65
2023-03-27T03:43:24.227Z,75.83
2023-03-27T03:45:51.100Z,76.05
2023-03-27T03:48:18.331Z,75.94
2023-03-27T03:50:45.720Z,75.92
2023-03-27T03:53:13.169Z,75.86
2023-03-27T03:55:39.868Z,75.90
2023-03-27T03:58:06.494Z,75.89
2023-03-27T04:00:38.138Z,75.83
2023-03-27T04:03:11.220Z,76.06
2023-03-27T04:05:38.121Z,76.08
2023-03-27T04:08:08.463Z,75.91
2023-03-27T04:10:36.984Z,76.25
2023-03-27T04:13:03.686Z,76.25
2023-03-27T04:15:30.411Z,76.10
2023-03-27T04:17:57.908Z,76.45
2023-03-27T04:20:27.480Z,76.76
2023-03-27T04:22:54.457Z,76.84
2023-03-27T04:25:22.903Z,77.08
2023-03-27T04:27:52.476Z,77.10
2023-03-27T04:30:23.708Z,77.17
2023-03-27T04:32:51.218Z,77.27
2023-03-27T04:35:18.519Z,77.22
2023-03-27T04:37:45.558Z,77.15
2023-03-27T04:40:13.904Z,77.34
2023-03-27T04:42:44.046Z,77.34
2023-03-27T04:45:12.669Z,77.45
2023-03-27T04:47:39.419Z,77.41
2023-03-27T04:50:06.698Z,77.49
2023-03-27T04:52:33.721Z,77.01
2023-03-27T04:55:01.725Z,76.99
2023-03-27T04:57:30.976Z,77.08
2023-03-27T05:00:01.117Z,77.12
2023-03-27T05:02:27.919Z,76.91
2023-03-27T05:04:58.733Z,76.97
2023-03-27T05:07:26.589Z,76.73
2023-03-27T05:09:53.389Z,76.66
2023-03-27T05:12:20.991Z,76.83
2023-03-27T05:14:48.650Z,76.67
2023-03-27T05:17:16.561Z,76.65
2023-03-27T05:19:43.608Z,76.10
2023-03-27T05:22:10.416Z,75.04
2023-03-27T05:24:37.893Z,74.01
2023-03-27T05:27:05.292Z,73.00
2023-03-27T05:29:46.308Z,71.72
2023-03-27T05:32:14.442Z,70.79
2023-03-27T05:34:42.434Z,69.69
2023-03-27T05:37:09.256Z,69.21
2023-03-27T05:39:36.918Z,67.84
2023-03-27T05:42:04.006Z,66.96
2023-03-27T05:44:30.745Z,65.80
2023-03-27T05:46:57.442Z,64.62
2023-03-27T05:49:24.194Z,63.29
2023-03-27T05:51:51.001Z,61.41
2023-03-27T05:54:17.751Z,61.59
2023-03-27T05:56:44.438Z,60.93
2023-03-27T05:59:11.151Z,58.70
2023-03-27T06:01:39.893Z,57.60
2023-03-27T06:04:09.646Z,55.41
2023-03-27T06:06:36.495Z,54.50
2023-03-27T06:09:03.928Z,53.09
2023-03-27T06:11:30.894Z,52.50
2023-03-27T06:13:58.698Z,51.97
2023-03-27T06:16:25.933Z,51.95
2023-03-27T06:18:53.173Z,50.97
2023-03-27T06:21:19.993Z,50.43
2023-03-27T06:23:47.841Z,50.66
2023-03-27T06:26:15.600Z,53.22
2023-03-27T06:28:42.600Z,50.66
2023-03-27T06:31:09.413Z,51.40
2023-03-27T06:33:36.377Z,49.40
2023-03-27T06:36:03.318Z,48.17
2023-03-27T06:38:32.098Z,47.87
2023-03-27T06:40:59.983Z,47.09
2023-03-27T06:43:26.754Z,48.11
2023-03-27T06:45:53.602Z,49.12
2023-03-27T06:48:22.421Z,49.05
2023-03-27T06:50:50.635Z,48.34
2023-03-27T06:55:47.391Z,48.01
2023-03-27T06:58:14.038Z,45.37
2023-03-27T07:00:41.385Z,45.30
2023-03-27T07:03:09.901Z,44.84
2023-03-27T07:05:37.753Z,44.07
2023-03-27T07:08:18.981Z,44.18
2023-03-27T07:10:56.369Z,43.92
2023-03-27T07:13:34.816Z,42.92
2023-03-27T07:16:01.821Z,43.28
2023-03-27T07:18:28.726Z,43.95
2023-03-27T07:20:55.953Z,42.96
2023-03-27T07:23:23.032Z,44.55
2023-03-27T07:25:50.408Z,43.87
2023-03-27T07:28:18.576Z,42.79
2023-03-27T07:30:45.476Z,40.25
2023-03-27T07:33:12.926Z,40.57
2023-03-27T07:35:43.796Z,36.84
2023-03-27T07:38:11.168Z,38.12
2023-03-27T07:40:40.598Z,36.46
2023-03-27T07:43:07.880Z,36.70
2023-03-27T07:45:35.132Z,36.16
2023-03-27T07:48:16.386Z,36.45
2023-03-27T07:50:43.731Z,35.27
2023-03-27T07:53:10.430Z,37.11
2023-03-27T07:55:59.232Z,34.43
2023-03-27T07:58:26.421Z,33.43
2023-03-27T08:00:53.434Z,34.15
2023-03-27T08:03:20.953Z,34.82
2023-03-27T08:05:55.240Z,31.89
2023-03-27T08:08:22.162Z,33.39
2023-03-27T08:10:48.912Z,34.58
2023-03-27T08:13:15.754Z,34.03
2023-03-27T08:15:42.571Z,34.26
2023-03-27T08:18:11.806Z,32.02
2023-03-27T08:20:39.192Z,33.32
2023-03-27T08:23:07.722Z,31.87
2023-03-27T08:25:34.931Z,31.62
2023-03-27T08:28:02.739Z,32.24
2023-03-27T08:30:29.957Z,31.51
2023-03-27T08:32:57.058Z,32.71
2023-03-27T08:35:24.017Z,30.96
2023-03-27T08:37:50.974Z,31.27
2023-03-27T08:40:23.672Z,33.48
2023-03-27T08:42:52.680Z,33.89
2023-03-27T08:45:23.337Z,33.48
2023-03-27T08:48:02.807Z,34.72
2023-03-27T08:50:42.676Z,35.49
2023-03-27T08:53:49.299Z,34.54
2023-03-27T08:56:16.490Z,34.95
2023-03-27T08:58:43.886Z,38.03
2023-03-27T09:01:31.192Z,36.17
2023-03-27T09:04:03.839Z,34.86
2023-03-27T09:06:39.785Z,36.38
2023-03-27T09:09:07.865Z,36.79
2023-03-27T09:11:45.905Z,37.45
2023-03-27T09:14:25.999Z,36.35
2023-03-27T09:16:52.734Z,36.84
2023-03-27T09:19:31.216Z,36.57
2023-03-27T09:22:02.723Z,37.30
2023-03-27T09:24:32.041Z,37.10
2023-03-27T09:27:07.129Z,35.58
2023-03-27T09:29:34.810Z,36.87
2023-03-27T09:32:01.439Z,37.10
2023-03-27T09:34:32.698Z,37.84
2023-03-27T09:36:59.874Z,38.16
2023-03-27T09:39:30.125Z,37.34
2023-03-27T09:42:16.748Z,36.04
2023-03-27T09:44:43.796Z,35.33
2023-03-27T09:47:21.412Z,34.45
2023-03-27T09:49:54.740Z,37.20
2023-03-27T09:52:35.862Z,38.64
2023-03-27T09:55:03.065Z,39.46
2023-03-27T09:57:34.067Z,40.34
2023-03-27T10:00:08.206Z,40.94
2023-03-27T10:02:36.826Z,42.52
2023-03-27T10:05:23.218Z,42.57
2023-03-27T10:07:49.944Z,39.37
2023-03-27T10:10:20.420Z,39.40
2023-03-27T10:12:57.329Z,39.42
2023-03-27T10:15:40.378Z,40.62
2023-03-27T10:18:24.728Z,40.54
2023-03-27T10:20:52.685Z,40.40
2023-03-27T10:23:49.869Z,41.06
2023-03-27T10:26:21.735Z,40.59
2023-03-27T10:28:50.143Z,39.87
2023-03-27T10:31:32.604Z,39.13
2023-03-27T10:34:04.106Z,39.98
2023-03-27T10:36:36.050Z,40.18
2023-03-27T10:39:09.461Z,41.44
2023-03-27T10:41:36.872Z,39.45
2023-03-27T10:44:14.932Z,38.35
2023-03-27T10:46:41.701Z,37.75
2023-03-27T10:49:28.831Z,38.41
2023-03-27T10:52:37.061Z,37.24
2023-03-27T10:55:31.740Z,37.33
2023-03-27T10:58:00.322Z,39.83
2023-03-27T11:00:36.327Z,39.05
2023-03-27T11:03:15.629Z,39.46
2023-03-27T11:05:44.865Z,38.47
2023-03-27T11:08:27.790Z,39.30
2023-03-27T11:10:55.885Z,39.76
2023-03-27T11:13:27.999Z,40.15
2023-03-27T11:16:16.478Z,39.26
2023-03-27T11:18:56.727Z,41.02
2023-03-27T11:21:47.493Z,40.10
2023-03-27T11:24:41.129Z,40.74
2023-03-27T11:27:21.073Z,39.10
2023-03-27T11:29:57.165Z,39.62
2023-03-27T11:32:39.455Z,40.71
2023-03-27T11:35:14.587Z,38.20
2023-03-27T11:37:59.681Z,38.78
2023-03-27T11:40:34.248Z,39.96
2023-03-27T11:43:01.509Z,39.45
2023-03-27T11:45:37.274Z,38.72
2023-03-27T11:48:32.943Z,39.07
2023-03-27T11:51:14.024Z,38.65
2023-03-27T11:53:59.349Z,38.77
2023-03-27T11:56:50.991Z,37.25
2023-03-27T11:59:42.227Z,38.68
2023-03-27T12:02:34.294Z,39.24
2023-03-27T12:05:08.520Z,38.98
2023-03-27T12:07:48.205Z,38.63
2023-03-27T12:10:28.381Z,39.32
2023-03-27T12:13:41.288Z,39.38
2023-03-27T12:16:15.642Z,40.90
2023-03-27T12:19:04.019Z,40.02
2023-03-27T12:21:55.880Z,41.72
2023-03-27T12:24:57.101Z,43.04
2023-03-27T12:27:32.895Z,44.72
2023-03-27T12:30:02.739Z,44.75
2023-03-27T12:33:14.119Z,43.59
2023-03-27T12:35:47.019Z,45.10
2023-03-27T12:38:27.174Z,45.69
2023-03-27T12:41:11.074Z,46.33
2023-03-27T12:43:41.326Z,43.19
2023-03-27T12:46:23.641Z,43.14
2023-03-27T12:49:02.226Z,42.36
2023-03-27T12:51:47.639Z,42.83
2023-03-27T12:54:27.299Z,42.36
2023-03-27T12:57:14.812Z,40.29
2023-03-27T13:00:02.616Z,40.75
2023-03-27T13:02:44.525Z,41.96
2023-03-27T13:05:26.824Z,44.09
2023-03-27T13:08:16.238Z,47.49
2023-03-27T13:11:02.341Z,49.53
2023-03-27T13:14:06.841Z,50.21
2023-03-27T13:16:42.765Z,52.09
2023-03-27T13:19:12.672Z,51.31
2023-03-27T13:21:45.981Z,51.33
2023-03-27T13:24:54.894Z,54.77
2023-03-27T13:28:06.962Z,51.52
2023-03-27T13:30:50.768Z,54.99
2023-03-27T13:33:24.522Z,55.09
2023-03-27T13:35:57.429Z,56.27
2023-03-27T13:38:52.549Z,58.81
2023-03-27T13:41:44.053Z,58.98
2023-03-27T13:44:20.335Z,56.31
2023-03-27T13:46:50.370Z,56.20
2023-03-27T13:49:43.479Z,56.32
2023-03-27T13:52:23.190Z,58.94
2023-03-27T13:55:12.778Z,61.03
2023-03-27T13:57:58.017Z,59.23
2023-03-27T14:00:53.159Z,59.49
2023-03-27T14:03:38.606Z,61.14
2023-03-27T14:06:27.979Z,61.28
2023-03-27T14:09:16.437Z,59.95
2023-03-27T14:12:07.323Z,57.89
2023-03-27T14:14:52.653Z,60.78
2023-03-27T14:17:28.522Z,55.34
2023-03-27T14:20:11.644Z,58.79
2023-03-27T14:23:07.335Z,61.07
2023-03-27T14:25:36.471Z,61.97
2023-03-27T14:28:03.238Z,66.07
2023-03-27T14:30:32.751Z,69.43
2023-03-27T14:33:06.690Z,68.47
2023-03-27T14:35:41.323Z,67.98
2023-03-27T14:38:29.176Z,70.73
2023-03-27T14:41:07.006Z,72.23
2023-03-27T14:43:33.670Z,72.97
2023-03-27T14:46:03.283Z,72.21
2023-03-27T14:48:37.471Z,73.03
2023-03-27T14:51:09.589Z,74.00
2023-03-27T14:53:37.331Z,74.72
2023-03-27T14:56:13.014Z,71.39
2023-03-27T14:58:46.123Z,72.91
2023-03-27T15:01:17.185Z,73.28
2023-03-27T15:03:47.419Z,74.43
2023-03-27T15:06:16.979Z,74.64
2023-03-27T15:08:50.152Z,74.93
2023-03-27T15:11:22.097Z,77.68
2023-03-27T15:13:48.796Z,75.15
2023-03-27T15:16:19.390Z,76.45
2023-03-27T15:18:53.124Z,77.31
2023-03-27T15:21:49.411Z,77.91
2023-03-27T15:24:25.642Z,77.63
2023-03-27T15:26:52.542Z,78.28
2023-03-27T15:29:28.117Z,75.88
2023-03-27T15:31:55.215Z,76.46
2023-03-27T15:34:34.570Z,76.55
2023-03-27T15:37:03.850Z,77.18
2023-03-27T15:39:30.588Z,78.00
2023-03-27T15:42:05.086Z,78.29
2023-03-27T15:44:32.722Z,76.84
2023-03-27T15:47:00.475Z,77.55
2023-03-27T15:49:37.170Z,78.04
2023-03-27T15:52:31.234Z,78.08
2023-03-27T15:54:59.218Z,77.94
2023-03-27T15:57:26.981Z,77.59
2023-03-27T15:59:53.909Z,78.41
2023-03-27T16:02:21.015Z,78.51
2023-03-27T16:04:57.548Z,77.26
2023-03-27T16:07:25.452Z,76.77
2023-03-27T16:10:03.016Z,78.01
2023-03-27T16:12:35.043Z,77.76
2023-03-27T16:15:05.661Z,77.65
2023-03-27T16:17:34.279Z,77.33
2023-03-27T16:20:24.097Z,78.88
2023-03-27T16:22:51.169Z,79.89
2023-03-27T16:25:17.898Z,80.88
2023-03-27T16:27:58.878Z,81.63
2023-03-27T16:30:35.332Z,79.90
2023-03-27T16:33:02.689Z,78.53
2023-03-27T16:35:31.140Z,80.26
2023-03-27T16:37:58.001Z,81.64
2023-03-27T16:40:25.009Z,82.26
2023-03-27T16:42:51.636Z,82.42
2023-03-27T16:45:18.272Z,82.07
2023-03-27T16:47:47.453Z,78.88
2023-03-27T16:50:19.508Z,80.20
2023-03-27T16:52:46.683Z,80.01
2023-03-27T16:55:14.078Z,81.26
2023-03-27T16:57:42.055Z,81.69
2023-03-27T17:00:09.977Z,80.77
2023-03-27T17:02:36.802Z,80.73
2023-03-27T17:05:04.886Z,79.63
2023-03-27T17:07:31.580Z,80.43
2023-03-27T17:09:58.360Z,80.35
2023-03-27T17:12:25.119Z,80.10
2023-03-27T17:14:52.532Z,80.88
2023-03-27T17:17:19.242Z,81.13
2023-03-27T17:19:45.900Z,81.08
2023-03-27T17:22:12.859Z,81.60
2023-03-27T17:24:53.220Z,82.02
2023-03-27T17:27:24.055Z,82.10
2023-03-27T17:29:51.459Z,81.78
2023-03-27T17:32:18.063Z,81.54
2023-03-27T17:34:44.772Z,80.97
2023-03-27T17:37:12.639Z,80.75
2023-03-27T17:39:39.623Z,80.33
2023-03-27T17:42:06.803Z,79.94
2023-03-27T17:44:33.544Z,79.80
2023-03-27T17:47:00.825Z,79.17
2023-03-27T17:49:29.633Z,79.10
2023-03-27T17:51:56.225Z,78.93
2023-03-27T17:54:22.924Z,79.10
2023-03-27T17:56:49.564Z,79.40
2023-03-27T17:59:16.305Z,79.84
2023-03-27T18:01:45.013Z,79.98
2023-03-27T18:04:12.331Z,79.97
2023-03-27T18:06:39.249Z,80.19
2023-03-27T18:09:07.418Z,80.56
2023-03-27T18:11:34.196Z,81.33
2023-03-27T18:14:01.013Z,81.32
2023-03-27T18:16:27.677Z,81.00
2023-03-27T18:18:55.728Z,81.47
2023-03-27T18:21:22.484Z,81.50
2023-03-27T18:23:49.184Z,81.35
2023-03-27T18:26:15.956Z,81.58
2023-03-27T18:28:42.868Z,80.85
2023-03-27T18:31:11.710Z,80.96
2023-03-27T18:33:38.253Z,81.51
2023-03-27T18:36:06.869Z,82.12
2023-03-27T18:38:33.558Z,82.12
2023-03-27T18:41:00.576Z,82.00
2023-03-27T18:43:27.532Z,82.45
2023-03-27T18:46:01.536Z,82.47
2023-03-27T18:48:29.774Z,82.07
2023-03-27T18:50:57.247Z,82.29
2023-03-27T18:53:24.054Z,82.33
2023-03-27T18:55:51.515Z,82.65
2023-03-27T18:58:18.673Z,82.64
2023-03-27T19:00:45.390Z,82.69
2023-03-27T19:03:18.038Z,82.63
2023-03-27T19:05:45.094Z,82.78
2023-03-27T19:08:11.942Z,82.79
2023-03-27T19:10:38.696Z,83.01
2023-03-27T19:13:05.420Z,83.12
2023-03-27T19:15:32.182Z,83.12
2023-03-27T19:17:59.010Z,82.70
2023-03-27T19:20:25.833Z,82.69
2023-03-27T19:22:52.652Z,82.32
2023-03-27T19:25:19.396Z,81.91
2023-03-27T19:27:46.096Z,82.10
2023-03-27T19:30:15.346Z,82.50
2023-03-27T19:32:42.008Z,82.69
2023-03-27T19:35:09.466Z,82.72
2023-03-27T19:37:36.856Z,82.62
2023-03-27T19:40:05.531Z,82.43
2023-03-27T19:42:32.250Z,82.11
2023-03-27T19:44:58.929Z,81.93
2023-03-27T19:47:25.632Z,81.94
2023-03-27T19:49:52.617Z,81.95
2023-03-27T19:52:20.218Z,81.99
2023-03-27T19:54:46.984Z,81.69
2023-03-27T19:57:13.766Z,81.84
2023-03-27T19:59:40.714Z,82.07
2023-03-27T20:02:07.552Z,82.10
2023-03-27T20:04:34.189Z,81.98
2023-03-27T20:07:02.193Z,81.78
2023-03-27T20:09:29.130Z,81.38
2023-03-27T20:11:56.976Z,81.28
2023-03-27T20:14:23.749Z,81.62
2023-03-27T20:16:51.764Z,80.56
2023-03-27T20:19:20.302Z,80.53
2023-03-27T20:21:49.133Z,79.98
2023-03-27T20:24:17.587Z,80.36
2023-03-27T20:26:48.500Z,80.94
2023-03-27T20:29:20.194Z,79.65
2023-03-27T20:31:47.003Z,80.31
2023-03-27T20:34:14.348Z,80.79
2023-03-27T20:36:41.037Z,81.29
2023-03-27T20:39:07.965Z,81.17
2023-03-27T20:41:38.929Z,81.20
2023-03-27T20:44:34.962Z,81.22
2023-03-27T20:47:03.538Z,81.03
2023-03-27T20:49:40.454Z,81.97
2023-03-27T20:52:07.839Z,82.82
2023-03-27T20:54:34.792Z,83.23
2023-03-27T20:57:02.720Z,83.55
2023-03-27T20:59:30.677Z,84.10
2023-03-27T21:01:57.870Z,84.21
2023-03-27T21:04:26.131Z,84.44
2023-03-27T21:06:54.954Z,84.09
2023-03-27T21:09:22.539Z,84.03
2023-03-27T21:11:49.203Z,83.89
2023-03-27T21:14:16.075Z,83.96
2023-03-27T21:16:42.884Z,84.21
2023-03-27T21:19:10.786Z,84.26
2023-03-27T21:21:37.572Z,84.23
2023-03-27T21:24:04.532Z,83.97
2023-03-27T21:26:31.214Z,83.87
2023-03-27T21:28:57.904Z,83.63
2023-03-27T21:31:24.612Z,83.23
2023-03-27T21:33:51.326Z,83.21
2023-03-27T21:36:18.009Z,83.14
2023-03-27T21:38:44.940Z,82.97
2023-03-27T21:41:13.516Z,82.96
2023-03-27T21:43:40.217Z,82.48
2023-03-27T21:46:06.981Z,82.11
2023-03-27T21:48:33.705Z,81.78
2023-03-27T21:51:05.442Z,81.70
2023-03-27T21:53:32.103Z,81.80
2023-03-27T21:55:58.984Z,82.15
2023-03-27T21:58:25.898Z,82.09
2023-03-27T22:00:52.717Z,81.97
2023-03-27T22:03:19.460Z,81.87
2023-03-27T22:05:51.605Z,81.80
2023-03-27T22:08:24.401Z,81.94
2023-03-27T22:10:51.204Z,81.61
2023-03-27T22:13:17.839Z,81.50
2023-03-27T22:15:44.551Z,81.93
2023-03-27T22:18:11.341Z,82.03
2023-03-27T22:20:38.056Z,82.01
2023-03-27T22:23:04.847Z,82.24
2023-03-27T22:25:31.618Z,82.12
2023-03-27T22:27:59.992Z,81.82
2023-03-27T22:30:27.924Z,81.80
2023-03-27T22:32:54.640Z,82.07
2023-03-27T22:35:21.363Z,82.08
2023-03-27T22:37:48.026Z,82.18
2023-03-27T22:40:14.653Z,82.33
2023-03-27T22:42:41.366Z,82.42
2023-03-27T22:45:08.628Z,82.53
2023-03-27T22:47:35.883Z,82.68
2023-03-27T22:50:02.709Z,82.69
2023-03-27T22:52:29.305Z,82.82
2023-03-27T22:54:56.270Z,82.60
2023-03-27T22:57:23.065Z,82.03
2023-03-27T22:59:51.026Z,81.97
2023-03-27T23:02:17.715Z,82.28
2023-03-27T23:04:44.376Z,82.70
2023-03-27T23:07:11.040Z,83.26
2023-03-27T23:09:37.766Z,83.22
2023-03-27T23:12:04.639Z,83.06
2023-03-27T23:14:31.898Z,83.45
2023-03-27T23:16:58.661Z,83.63
2023-03-27T23:19:25.392Z,83.78
2023-03-27T23:21:52.001Z,83.69
2023-03-27T23:24:18.647Z,83.71
2023-03-27T23:26:45.301Z,83.91
2023-03-27T23:29:12.006Z,84.03
2023-03-27T23:31:38.686Z,84.12
2023-03-27T23:34:05.390Z,83.08
2023-03-27T23:36:32.019Z,81.12
2023-03-27T23:38:58.657Z,81.15
2023-03-27T23:41:25.321Z,81.91
2023-03-27T23:43:53.921Z,82.02
2023-03-27T23:46:20.658Z,81.48
2023-03-27T23:48:47.388Z,81.02
2023-03-27T23:51:14.736Z,80.38
2023-03-27T23:53:41.502Z,80.07
2023-03-27T23:56:08.840Z,80.58
2023-03-27T23:58:37.315Z,82.09
